sensor_id;sensor_type;location;lat;lon;timestamp;P1;durP1;ratioP1;P2;durP2;ratioP2
61962;SDS011;47927;42.646;23.096;2022-11-20T00:00:52;2.85;;;1.02;;
61962;SDS011;47927;42.646;23.096;2022-11-20T00:03:18;4.53;;;1.23;;
61962;SDS011;47927;42.646;23.096;2022-11-20T00:05:44;4.07;;;1.42;;
61962;SDS011;47927;42.646;23.096;2022-11-20T00:08:10;4.65;;;1.27;;
61962;SDS011;47927;42.646;23.096;2022-11-20T00:10:36;3.80;;;1.40;;
61962;SDS011;47927;42.646;23.096;2022-11-20T00:13:02;3.53;;;1.25;;
61962;SDS011;47927;42.646;23.096;2022-11-20T00:15:28;3.75;;;1.17;;
61962;SDS011;47927;42.646;23.096;2022-11-20T00:17:54;6.32;;;1.67;;
61962;SDS011;47927;42.646;23.096;2022-11-20T00:20:19;4.22;;;1.60;;
61962;SDS011;47927;42.646;23.096;2022-11-20T00:22:45;3.67;;;1.17;;
61962;SDS011;47927;42.646;23.096;2022-11-20T00:25:10;8.32;;;1.30;;
61962;SDS011;47927;42.646;23.096;2022-11-20T00:27:36;5.45;;;1.33;;
61962;SDS011;47927;42.646;23.096;2022-11-20T00:30:02;5.10;;;1.83;;
61962;SDS011;47927;42.646;23.096;2022-11-20T00:32:29;7.22;;;1.52;;
61962;SDS011;47927;42.646;23.096;2022-11-20T00:34:55;4.72;;;1.17;;
61962;SDS011;47927;42.646;23.096;2022-11-20T00:37:20;6.50;;;1.50;;
61962;SDS011;47927;42.646;23.096;2022-11-20T00:39:46;5.65;;;1.58;;
61962;SDS011;47927;42.646;23.096;2022-11-20T00:42:11;4.72;;;1.27;;
61962;SDS011;47927;42.646;23.096;2022-11-20T00:44:37;10.52;;;1.83;;
61962;SDS011;47927;42.646;23.096;2022-11-20T00:47:02;6.07;;;1.67;;
61962;SDS011;47927;42.646;23.096;2022-11-20T00:49:28;4.00;;;0.90;;
61962;SDS011;47927;42.646;23.096;2022-11-20T00:51:54;11.02;;;1.95;;
61962;SDS011;47927;42.646;23.096;2022-11-20T00:54:19;3.33;;;1.20;;
61962;SDS011;47927;42.646;23.096;2022-11-20T00:56:45;6.97;;;1.60;;
61962;SDS011;47927;42.646;23.096;2022-11-20T00:59:10;9.00;;;1.85;;
61962;SDS011;47927;42.646;23.096;2022-11-20T01:01:36;4.85;;;1.52;;
61962;SDS011;47927;42.646;23.096;2022-11-20T01:04:02;9.65;;;1.90;;
61962;SDS011;47927;42.646;23.096;2022-11-20T01:06:29;6.13;;;1.40;;
61962;SDS011;47927;42.646;23.096;2022-11-20T01:08:57;6.03;;;1.35;;
61962;SDS011;47927;42.646;23.096;2022-11-20T01:11:26;10.05;;;1.80;;
61962;SDS011;47927;42.646;23.096;2022-11-20T01:13:57;2.67;;;1.20;;
61962;SDS011;47927;42.646;23.096;2022-11-20T01:16:24;5.63;;;2.03;;
61962;SDS011;47927;42.646;23.096;2022-11-20T01:18:53;7.30;;;1.30;;
61962;SDS011;47927;42.646;23.096;2022-11-20T01:21:22;2.80;;;1.73;;
61962;SDS011;47927;42.646;23.096;2022-11-20T01:23:49;5.10;;;1.33;;
61962;SDS011;47927;42.646;23.096;2022-11-20T01:26:16;5.15;;;1.20;;
61962;SDS011;47927;42.646;23.096;2022-11-20T01:28:47;7.85;;;1.30;;
61962;SDS011;47927;42.646;23.096;2022-11-20T01:31:21;4.70;;;1.30;;
61962;SDS011;47927;42.646;23.096;2022-11-20T01:33:53;9.25;;;1.80;;
61962;SDS011;47927;42.646;23.096;2022-11-20T01:36:20;2.58;;;1.38;;
61962;SDS011;47927;42.646;23.096;2022-11-20T01:38:47;6.55;;;1.50;;
61962;SDS011;47927;42.646;23.096;2022-11-20T01:41:16;4.35;;;1.35;;
61962;SDS011;47927;42.646;23.096;2022-11-20T01:44:00;5.47;;;1.52;;
61962;SDS011;47927;42.646;23.096;2022-11-20T01:46:26;4.40;;;1.30;;
61962;SDS011;47927;42.646;23.096;2022-11-20T01:49:00;6.13;;;1.30;;
61962;SDS011;47927;42.646;23.096;2022-11-20T01:51:32;6.43;;;1.58;;
61962;SDS011;47927;42.646;23.096;2022-11-20T01:54:05;7.07;;;1.42;;
61962;SDS011;47927;42.646;23.096;2022-11-20T01:56:34;5.25;;;1.10;;
61962;SDS011;47927;42.646;23.096;2022-11-20T02:01:31;5.35;;;1.05;;
61962;SDS011;47927;42.646;23.096;2022-11-20T02:04:14;4.97;;;1.30;;
61962;SDS011;47927;42.646;23.096;2022-11-20T02:06:51;7.63;;;1.45;;
61962;SDS011;47927;42.646;23.096;2022-11-20T02:09:20;4.85;;;1.30;;
61962;SDS011;47927;42.646;23.096;2022-11-20T02:11:45;14.25;;;3.95;;
61962;SDS011;47927;42.646;23.096;2022-11-20T02:14:11;4.50;;;1.50;;
61962;SDS011;47927;42.646;23.096;2022-11-20T02:16:37;6.78;;;1.80;;
61962;SDS011;47927;42.646;23.096;2022-11-20T02:19:09;6.38;;;1.60;;
61962;SDS011;47927;42.646;23.096;2022-11-20T02:21:52;7.47;;;1.70;;
61962;SDS011;47927;42.646;23.096;2022-11-20T02:24:27;4.75;;;1.00;;
61962;SDS011;47927;42.646;23.096;2022-11-20T02:27:03;3.72;;;1.38;;
61962;SDS011;47927;42.646;23.096;2022-11-20T02:29:51;6.40;;;1.25;;
61962;SDS011;47927;42.646;23.096;2022-11-20T02:32:18;4.25;;;1.40;;
61962;SDS011;47927;42.646;23.096;2022-11-20T02:34:49;4.45;;;1.20;;
61962;SDS011;47927;42.646;23.096;2022-11-20T02:37:14;4.18;;;1.20;;
61962;SDS011;47927;42.646;23.096;2022-11-20T02:39:41;5.88;;;1.27;;
61962;SDS011;47927;42.646;23.096;2022-11-20T02:42:08;4.43;;;1.30;;
61962;SDS011;47927;42.646;23.096;2022-11-20T02:44:33;6.28;;;1.50;;
61962;SDS011;47927;42.646;23.096;2022-11-20T02:46:59;8.00;;;1.58;;
61962;SDS011;47927;42.646;23.096;2022-11-20T02:49:25;5.57;;;1.35;;
61962;SDS011;47927;42.646;23.096;2022-11-20T02:51:50;1.65;;;0.93;;
61962;SDS011;47927;42.646;23.096;2022-11-20T02:54:16;2.75;;;1.15;;
61962;SDS011;47927;42.646;23.096;2022-11-20T02:56:42;5.28;;;1.13;;
61962;SDS011;47927;42.646;23.096;2022-11-20T02:59:08;4.50;;;1.30;;
61962;SDS011;47927;42.646;23.096;2022-11-20T03:01:35;4.78;;;1.13;;
61962;SDS011;47927;42.646;23.096;2022-11-20T03:04:01;5.40;;;1.30;;
61962;SDS011;47927;42.646;23.096;2022-11-20T03:06:26;6.57;;;1.60;;
61962;SDS011;47927;42.646;23.096;2022-11-20T03:08:52;8.35;;;1.60;;
61962;SDS011;47927;42.646;23.096;2022-11-20T03:11:18;3.60;;;0.98;;
61962;SDS011;47927;42.646;23.096;2022-11-20T03:13:43;5.93;;;1.42;;
61962;SDS011;47927;42.646;23.096;2022-11-20T03:16:10;6.28;;;1.80;;
61962;SDS011;47927;42.646;23.096;2022-11-20T03:18:41;5.25;;;1.40;;
61962;SDS011;47927;42.646;23.096;2022-11-20T03:21:08;4.90;;;1.45;;
61962;SDS011;47927;42.646;23.096;2022-11-20T03:23:35;3.58;;;1.35;;
61962;SDS011;47927;42.646;23.096;2022-11-20T03:26:15;4.97;;;1.33;;
61962;SDS011;47927;42.646;23.096;2022-11-20T03:28:46;2.85;;;1.30;;
61962;SDS011;47927;42.646;23.096;2022-11-20T03:31:15;2.63;;;1.10;;
61962;SDS011;47927;42.646;23.096;2022-11-20T03:33:42;4.68;;;1.10;;
61962;SDS011;47927;42.646;23.096;2022-11-20T03:36:09;5.90;;;1.77;;
61962;SDS011;47927;42.646;23.096;2022-11-20T03:38:37;3.23;;;1.20;;
61962;SDS011;47927;42.646;23.096;2022-11-20T03:41:04;2.85;;;1.15;;
61962;SDS011;47927;42.646;23.096;2022-11-20T03:43:31;3.42;;;0.98;;
61962;SDS011;47927;42.646;23.096;2022-11-20T03:45:58;2.28;;;0.98;;
61962;SDS011;47927;42.646;23.096;2022-11-20T03:48:24;3.67;;;1.10;;
61962;SDS011;47927;42.646;23.096;2022-11-20T03:50:50;3.10;;;1.10;;
61962;SDS011;47927;42.646;23.096;2022-11-20T03:53:17;5.32;;;1.00;;
61962;SDS011;47927;42.646;23.096;2022-11-20T03:55:43;3.65;;;1.23;;
61962;SDS011;47927;42.646;23.096;2022-11-20T03:58:09;4.05;;;1.30;;
61962;SDS011;47927;42.646;23.096;2022-11-20T04:00:35;3.88;;;1.27;;
61962;SDS011;47927;42.646;23.096;2022-11-20T04:03:01;6.80;;;1.50;;
61962;SDS011;47927;42.646;23.096;2022-11-20T04:05:27;8.85;;;1.30;;
61962;SDS011;47927;42.646;23.096;2022-11-20T04:07:53;3.15;;;0.88;;
61962;SDS011;47927;42.646;23.096;2022-11-20T04:10:19;4.63;;;0.95;;
61962;SDS011;47927;42.646;23.096;2022-11-20T04:12:45;4.20;;;1.00;;
61962;SDS011;47927;42.646;23.096;2022-11-20T04:15:10;3.35;;;0.90;;
61962;SDS011;47927;42.646;23.096;2022-11-20T04:17:36;5.00;;;1.25;;
61962;SDS011;47927;42.646;23.096;2022-11-20T04:20:02;4.07;;;1.70;;
61962;SDS011;47927;42.646;23.096;2022-11-20T04:22:28;5.07;;;1.27;;
61962;SDS011;47927;42.646;23.096;2022-11-20T04:24:54;3.83;;;1.05;;
61962;SDS011;47927;42.646;23.096;2022-11-20T04:27:19;1.40;;;0.70;;
61962;SDS011;47927;42.646;23.096;2022-11-20T04:29:45;5.20;;;1.05;;
61962;SDS011;47927;42.646;23.096;2022-11-20T04:32:10;4.65;;;1.30;;
61962;SDS011;47927;42.646;23.096;2022-11-20T04:34:36;3.50;;;1.00;;
61962;SDS011;47927;42.646;23.096;2022-11-20T04:37:01;4.00;;;1.17;;
61962;SDS011;47927;42.646;23.096;2022-11-20T04:39:27;4.20;;;1.10;;
61962;SDS011;47927;42.646;23.096;2022-11-20T04:41:52;3.80;;;1.27;;
61962;SDS011;47927;42.646;23.096;2022-11-20T04:44:38;4.72;;;1.10;;
61962;SDS011;47927;42.646;23.096;2022-11-20T04:47:03;7.57;;;1.10;;
61962;SDS011;47927;42.646;23.096;2022-11-20T04:49:29;3.15;;;1.10;;
61962;SDS011;47927;42.646;23.096;2022-11-20T04:51:56;4.10;;;1.60;;
61962;SDS011;47927;42.646;23.096;2022-11-20T04:54:22;8.88;;;2.25;;
61962;SDS011;47927;42.646;23.096;2022-11-20T04:56:48;5.22;;;1.60;;
61962;SDS011;47927;42.646;23.096;2022-11-20T04:59:14;4.22;;;1.98;;
61962;SDS011;47927;42.646;23.096;2022-11-20T05:01:40;6.55;;;2.30;;
61962;SDS011;47927;42.646;23.096;2022-11-20T05:04:05;7.13;;;1.80;;
61962;SDS011;47927;42.646;23.096;2022-11-20T05:06:31;9.32;;;2.95;;
61962;SDS011;47927;42.646;23.096;2022-11-20T05:08:57;9.07;;;3.10;;
61962;SDS011;47927;42.646;23.096;2022-11-20T05:11:23;13.02;;;3.35;;
61962;SDS011;47927;42.646;23.096;2022-11-20T05:13:49;15.10;;;3.92;;
61962;SDS011;47927;42.646;23.096;2022-11-20T05:16:22;6.63;;;3.00;;
61962;SDS011;47927;42.646;23.096;2022-11-20T05:18:50;13.90;;;3.35;;
61962;SDS011;47927;42.646;23.096;2022-11-20T05:21:16;10.43;;;2.80;;
61962;SDS011;47927;42.646;23.096;2022-11-20T05:24:01;6.20;;;2.05;;
61962;SDS011;47927;42.646;23.096;2022-11-20T05:26:26;6.00;;;2.22;;
61962;SDS011;47927;42.646;23.096;2022-11-20T05:28:52;7.75;;;2.40;;
61962;SDS011;47927;42.646;23.096;2022-11-20T05:31:18;4.38;;;1.50;;
61962;SDS011;47927;42.646;23.096;2022-11-20T05:33:46;11.63;;;2.28;;
61962;SDS011;47927;42.646;23.096;2022-11-20T05:36:12;5.82;;;1.75;;
61962;SDS011;47927;42.646;23.096;2022-11-20T05:38:39;4.93;;;1.70;;
61962;SDS011;47927;42.646;23.096;2022-11-20T05:41:06;5.50;;;1.73;;
61962;SDS011;47927;42.646;23.096;2022-11-20T05:43:33;11.43;;;1.67;;
61962;SDS011;47927;42.646;23.096;2022-11-20T05:46:00;5.40;;;1.48;;
61962;SDS011;47927;42.646;23.096;2022-11-20T05:48:26;7.38;;;1.90;;
61962;SDS011;47927;42.646;23.096;2022-11-20T05:50:51;4.45;;;1.85;;
61962;SDS011;47927;42.646;23.096;2022-11-20T05:53:17;19.13;;;2.42;;
61962;SDS011;47927;42.646;23.096;2022-11-20T05:55:43;21.42;;;2.50;;
61962;SDS011;47927;42.646;23.096;2022-11-20T05:58:08;8.90;;;1.75;;
61962;SDS011;47927;42.646;23.096;2022-11-20T06:00:34;10.45;;;2.30;;
61962;SDS011;47927;42.646;23.096;2022-11-20T06:03:00;9.43;;;1.80;;
61962;SDS011;47927;42.646;23.096;2022-11-20T06:05:26;8.15;;;1.95;;
61962;SDS011;47927;42.646;23.096;2022-11-20T06:07:52;7.95;;;1.80;;
61962;SDS011;47927;42.646;23.096;2022-11-20T06:10:17;9.65;;;1.80;;
61962;SDS011;47927;42.646;23.096;2022-11-20T06:12:43;9.50;;;2.08;;
61962;SDS011;47927;42.646;23.096;2022-11-20T06:15:08;5.82;;;1.30;;
61962;SDS011;47927;42.646;23.096;2022-11-20T06:17:35;12.00;;;2.35;;
61962;SDS011;47927;42.646;23.096;2022-11-20T06:20:00;7.85;;;2.25;;
61962;SDS011;47927;42.646;23.096;2022-11-20T06:22:26;6.30;;;1.77;;
61962;SDS011;47927;42.646;23.096;2022-11-20T06:24:51;6.38;;;1.80;;
61962;SDS011;47927;42.646;23.096;2022-11-20T06:27:17;5.30;;;2.00;;
61962;SDS011;47927;42.646;23.096;2022-11-20T06:29:43;7.70;;;2.03;;
61962;SDS011;47927;42.646;23.096;2022-11-20T06:32:08;6.78;;;4.05;;
61962;SDS011;47927;42.646;23.096;2022-11-20T06:34:34;12.23;;;3.33;;
61962;SDS011;47927;42.646;23.096;2022-11-20T06:37:00;9.50;;;2.22;;
61962;SDS011;47927;42.646;23.096;2022-11-20T06:39:25;5.97;;;2.10;;
61962;SDS011;47927;42.646;23.096;2022-11-20T06:41:51;7.43;;;1.70;;
61962;SDS011;47927;42.646;23.096;2022-11-20T06:44:16;5.57;;;2.10;;
61962;SDS011;47927;42.646;23.096;2022-11-20T06:46:42;15.80;;;2.08;;
61962;SDS011;47927;42.646;23.096;2022-11-20T06:49:07;3.85;;;1.70;;
61962;SDS011;47927;42.646;23.096;2022-11-20T06:51:33;7.50;;;1.77;;
61962;SDS011;47927;42.646;23.096;2022-11-20T06:53:58;6.47;;;1.63;;
61962;SDS011;47927;42.646;23.096;2022-11-20T06:56:25;5.30;;;1.73;;
61962;SDS011;47927;42.646;23.096;2022-11-20T06:58:51;3.17;;;2.00;;
61962;SDS011;47927;42.646;23.096;2022-11-20T07:01:17;10.23;;;1.85;;
61962;SDS011;47927;42.646;23.096;2022-11-20T07:03:42;6.38;;;2.05;;
61962;SDS011;47927;42.646;23.096;2022-11-20T07:06:08;3.92;;;1.70;;
61962;SDS011;47927;42.646;23.096;2022-11-20T07:08:34;7.68;;;1.98;;
61962;SDS011;47927;42.646;23.096;2022-11-20T07:11:00;5.93;;;2.03;;
61962;SDS011;47927;42.646;23.096;2022-11-20T07:13:27;11.32;;;3.38;;
61962;SDS011;47927;42.646;23.096;2022-11-20T07:15:54;12.20;;;2.95;;
61962;SDS011;47927;42.646;23.096;2022-11-20T07:18:20;7.97;;;2.97;;
61962;SDS011;47927;42.646;23.096;2022-11-20T07:20:46;7.00;;;2.42;;
61962;SDS011;47927;42.646;23.096;2022-11-20T07:23:12;6.80;;;1.88;;
61962;SDS011;47927;42.646;23.096;2022-11-20T07:25:37;9.00;;;2.58;;
61962;SDS011;47927;42.646;23.096;2022-11-20T07:28:03;7.00;;;2.08;;
61962;SDS011;47927;42.646;23.096;2022-11-20T07:30:29;7.43;;;2.33;;
61962;SDS011;47927;42.646;23.096;2022-11-20T07:32:55;7.18;;;2.15;;
61962;SDS011;47927;42.646;23.096;2022-11-20T07:35:21;7.97;;;1.80;;
61962;SDS011;47927;42.646;23.096;2022-11-20T07:37:48;7.18;;;2.50;;
61962;SDS011;47927;42.646;23.096;2022-11-20T07:40:14;8.88;;;2.15;;
61962;SDS011;47927;42.646;23.096;2022-11-20T07:42:49;5.63;;;1.85;;
61962;SDS011;47927;42.646;23.096;2022-11-20T07:45:15;8.95;;;2.33;;
61962;SDS011;47927;42.646;23.096;2022-11-20T07:47:42;8.02;;;2.10;;
61962;SDS011;47927;42.646;23.096;2022-11-20T07:50:07;7.28;;;1.85;;
61962;SDS011;47927;42.646;23.096;2022-11-20T07:52:33;6.97;;;2.45;;
61962;SDS011;47927;42.646;23.096;2022-11-20T07:55:17;14.32;;;2.35;;
61962;SDS011;47927;42.646;23.096;2022-11-20T07:57:43;6.85;;;2.05;;
61962;SDS011;47927;42.646;23.096;2022-11-20T08:00:09;8.15;;;3.03;;
61962;SDS011;47927;42.646;23.096;2022-11-20T08:02:39;11.55;;;2.58;;
61962;SDS011;47927;42.646;23.096;2022-11-20T08:05:06;6.47;;;1.58;;
61962;SDS011;47927;42.646;23.096;2022-11-20T08:07:36;6.22;;;2.15;;
61962;SDS011;47927;42.646;23.096;2022-11-20T08:10:06;12.18;;;2.33;;
61962;SDS011;47927;42.646;23.096;2022-11-20T08:12:33;11.07;;;2.78;;
61962;SDS011;47927;42.646;23.096;2022-11-20T08:15:18;10.70;;;2.20;;
61962;SDS011;47927;42.646;23.096;2022-11-20T08:17:43;7.60;;;1.65;;
61962;SDS011;47927;42.646;23.096;2022-11-20T08:20:09;3.15;;;1.08;;
61962;SDS011;47927;42.646;23.096;2022-11-20T08:22:35;8.40;;;1.27;;
61962;SDS011;47927;42.646;23.096;2022-11-20T08:25:00;8.40;;;1.70;;
61962;SDS011;47927;42.646;23.096;2022-11-20T08:27:26;7.03;;;1.50;;
61962;SDS011;47927;42.646;23.096;2022-11-20T08:29:52;9.15;;;1.65;;
61962;SDS011;47927;42.646;23.096;2022-11-20T08:32:17;5.53;;;1.20;;
61962;SDS011;47927;42.646;23.096;2022-11-20T08:34:43;3.53;;;1.40;;
61962;SDS011;47927;42.646;23.096;2022-11-20T08:37:08;6.07;;;1.48;;
61962;SDS011;47927;42.646;23.096;2022-11-20T08:39:34;9.25;;;1.77;;
61962;SDS011;47927;42.646;23.096;2022-11-20T08:41:59;6.10;;;1.80;;
61962;SDS011;47927;42.646;23.096;2022-11-20T08:44:25;3.78;;;1.50;;
61962;SDS011;47927;42.646;23.096;2022-11-20T08:46:51;3.17;;;1.35;;
61962;SDS011;47927;42.646;23.096;2022-11-20T08:49:16;5.22;;;1.50;;
61962;SDS011;47927;42.646;23.096;2022-11-20T08:51:42;6.38;;;2.63;;
61962;SDS011;47927;42.646;23.096;2022-11-20T08:54:08;13.52;;;2.22;;
61962;SDS011;47927;42.646;23.096;2022-11-20T08:56:34;11.60;;;1.75;;
61962;SDS011;47927;42.646;23.096;2022-11-20T08:59:00;6.25;;;1.70;;
61962;SDS011;47927;42.646;23.096;2022-11-20T09:01:26;12.27;;;1.88;;
61962;SDS011;47927;42.646;23.096;2022-11-20T09:03:54;11.45;;;1.83;;
61962;SDS011;47927;42.646;23.096;2022-11-20T09:06:21;16.02;;;1.83;;
61962;SDS011;47927;42.646;23.096;2022-11-20T09:08:47;6.97;;;1.30;;
61962;SDS011;47927;42.646;23.096;2022-11-20T09:13:43;6.82;;;1.27;;
61962;SDS011;47927;42.646;23.096;2022-11-20T09:16:08;4.63;;;1.38;;
61962;SDS011;47927;42.646;23.096;2022-11-20T09:18:34;6.82;;;1.17;;
61962;SDS011;47927;42.646;23.096;2022-11-20T09:21:09;7.47;;;1.50;;
61962;SDS011;47927;42.646;23.096;2022-11-20T09:23:36;12.80;;;2.75;;
61962;SDS011;47927;42.646;23.096;2022-11-20T09:26:03;11.45;;;1.90;;
61962;SDS011;47927;42.646;23.096;2022-11-20T09:28:29;14.05;;;1.70;;
61962;SDS011;47927;42.646;23.096;2022-11-20T09:30:56;9.05;;;1.55;;
61962;SDS011;47927;42.646;23.096;2022-11-20T09:33:21;7.43;;;1.70;;
61962;SDS011;47927;42.646;23.096;2022-11-20T09:35:47;3.72;;;1.38;;
61962;SDS011;47927;42.646;23.096;2022-11-20T09:38:12;6.45;;;1.63;;
61962;SDS011;47927;42.646;23.096;2022-11-20T09:40:42;2.58;;;1.17;;
61962;SDS011;47927;42.646;23.096;2022-11-20T09:54:06;6.43;;;1.83;;
61962;SDS011;47927;42.646;23.096;2022-11-20T09:56:45;4.65;;;1.20;;
61962;SDS011;47927;42.646;23.096;2022-11-20T09:59:39;7.63;;;1.52;;
61962;SDS011;47927;42.646;23.096;2022-11-20T10:07:28;7.07;;;1.60;;
61962;SDS011;47927;42.646;23.096;2022-11-20T10:09:59;7.75;;;1.40;;
61962;SDS011;47927;42.646;23.096;2022-11-20T10:25:24;13.45;;;2.30;;
61962;SDS011;47927;42.646;23.096;2022-11-20T10:28:40;9.55;;;1.80;;
61962;SDS011;47927;42.646;23.096;2022-11-20T10:33:54;12.45;;;2.08;;
61962;SDS011;47927;42.646;23.096;2022-11-20T10:36:25;6.50;;;2.25;;
61962;SDS011;47927;42.646;23.096;2022-11-20T10:38:59;5.25;;;1.30;;
61962;SDS011;47927;42.646;23.096;2022-11-20T10:41:32;15.05;;;1.90;;
61962;SDS011;47927;42.646;23.096;2022-11-20T10:44:05;8.90;;;1.08;;
61962;SDS011;47927;42.646;23.096;2022-11-20T10:46:45;4.78;;;1.10;;
61962;SDS011;47927;42.646;23.096;2022-11-20T10:49:13;2.75;;;0.88;;
61962;SDS011;47927;42.646;23.096;2022-11-20T10:54:30;2.97;;;0.77;;
61962;SDS011;47927;42.646;23.096;2022-11-20T10:57:13;5.10;;;1.23;;
61962;SDS011;47927;42.646;23.096;2022-11-20T11:02:23;3.28;;;1.10;;
61962;SDS011;47927;42.646;23.096;2022-11-20T11:04:51;3.55;;;1.05;;
61962;SDS011;47927;42.646;23.096;2022-11-20T11:10:05;5.55;;;0.73;;
61962;SDS011;47927;42.646;23.096;2022-11-20T11:12:48;2.70;;;0.70;;
61962;SDS011;47927;42.646;23.096;2022-11-20T11:15:14;4.63;;;0.90;;
61962;SDS011;47927;42.646;23.096;2022-11-20T11:17:52;3.17;;;0.90;;
61962;SDS011;47927;42.646;23.096;2022-11-20T11:20:24;4.50;;;1.00;;
61962;SDS011;47927;42.646;23.096;2022-11-20T11:22:54;6.82;;;1.10;;
61962;SDS011;47927;42.646;23.096;2022-11-20T11:25:31;4.95;;;0.90;;
61962;SDS011;47927;42.646;23.096;2022-11-20T11:28:00;7.00;;;1.00;;
61962;SDS011;47927;42.646;23.096;2022-11-20T11:30:40;7.70;;;1.00;;
61962;SDS011;47927;42.646;23.096;2022-11-20T11:33:20;2.90;;;1.10;;
61962;SDS011;47927;42.646;23.096;2022-11-20T11:38:29;3.42;;;1.23;;
61962;SDS011;47927;42.646;23.096;2022-11-20T11:41:03;5.03;;;1.27;;
61962;SDS011;47927;42.646;23.096;2022-11-20T11:43:34;3.80;;;1.30;;
61962;SDS011;47927;42.646;23.096;2022-11-20T11:48:55;4.80;;;1.23;;
61962;SDS011;47927;42.646;23.096;2022-11-20T11:51:23;1.90;;;0.82;;
61962;SDS011;47927;42.646;23.096;2022-11-20T11:53:51;2.35;;;0.90;;
61962;SDS011;47927;42.646;23.096;2022-11-20T11:56:17;1.27;;;0.60;;
61962;SDS011;47927;42.646;23.096;2022-11-20T11:58:46;3.45;;;0.68;;
61962;SDS011;47927;42.646;23.096;2022-11-20T12:07:01;2.63;;;0.85;;
61962;SDS011;47927;42.646;23.096;2022-11-20T12:09:35;2.63;;;1.00;;
61962;SDS011;47927;42.646;23.096;2022-11-20T12:12:12;2.60;;;0.98;;
61962;SDS011;47927;42.646;23.096;2022-11-20T12:14:46;2.50;;;0.70;;
61962;SDS011;47927;42.646;23.096;2022-11-20T12:17:15;4.00;;;1.10;;
61962;SDS011;47927;42.646;23.096;2022-11-20T12:19:41;1.23;;;0.70;;
61962;SDS011;47927;42.646;23.096;2022-11-20T12:22:13;2.28;;;0.90;;
61962;SDS011;47927;42.646;23.096;2022-11-20T12:27:51;4.20;;;1.17;;
61962;SDS011;47927;42.646;23.096;2022-11-20T12:30:33;2.20;;;0.90;;
61962;SDS011;47927;42.646;23.096;2022-11-20T12:56:27;4.43;;;1.17;;
61962;SDS011;47927;42.646;23.096;2022-11-20T13:07:05;2.90;;;1.20;;
61962;SDS011;47927;42.646;23.096;2022-11-20T13:09:35;5.55;;;0.98;;
61962;SDS011;47927;42.646;23.096;2022-11-20T13:12:08;8.25;;;1.10;;
61962;SDS011;47927;42.646;23.096;2022-11-20T13:20:02;5.22;;;0.85;;
61962;SDS011;47927;42.646;23.096;2022-11-20T13:25:32;4.70;;;1.37;;
61962;SDS011;47927;42.646;23.096;2022-11-20T13:28:02;9.85;;;2.58;;
61962;SDS011;47927;42.646;23.096;2022-11-20T13:30:30;9.73;;;2.22;;
61962;SDS011;47927;42.646;23.096;2022-11-20T13:35:55;6.25;;;1.52;;
61962;SDS011;47927;42.646;23.096;2022-11-20T13:38:25;5.15;;;1.30;;
61962;SDS011;47927;42.646;23.096;2022-11-20T13:43:26;5.55;;;2.88;;
61962;SDS011;47927;42.646;23.096;2022-11-20T13:46:09;5.05;;;1.95;;
61962;SDS011;47927;42.646;23.096;2022-11-20T13:48:43;11.60;;;2.13;;
61962;SDS011;47927;42.646;23.096;2022-11-20T13:51:13;7.38;;;2.05;;
61962;SDS011;47927;42.646;23.096;2022-11-20T14:01:50;12.32;;;3.13;;
61962;SDS011;47927;42.646;23.096;2022-11-20T14:04:18;10.80;;;3.13;;
61962;SDS011;47927;42.646;23.096;2022-11-20T14:06:50;13.10;;;4.00;;
61962;SDS011;47927;42.646;23.096;2022-11-20T14:09:27;13.85;;;4.60;;
61962;SDS011;47927;42.646;23.096;2022-11-20T14:11:54;14.65;;;4.07;;
61962;SDS011;47927;42.646;23.096;2022-11-20T14:14:22;18.77;;;5.07;;
61962;SDS011;47927;42.646;23.096;2022-11-20T14:16:49;14.65;;;2.80;;
61962;SDS011;47927;42.646;23.096;2022-11-20T14:21:46;13.82;;;4.28;;
61962;SDS011;47927;42.646;23.096;2022-11-20T14:24:12;17.80;;;4.55;;
61962;SDS011;47927;42.646;23.096;2022-11-20T14:26:44;17.58;;;3.92;;
61962;SDS011;47927;42.646;23.096;2022-11-20T14:29:14;15.15;;;3.80;;
61962;SDS011;47927;42.646;23.096;2022-11-20T14:31:42;12.07;;;3.45;;
61962;SDS011;47927;42.646;23.096;2022-11-20T14:34:15;10.32;;;3.15;;
61962;SDS011;47927;42.646;23.096;2022-11-20T14:36:43;21.90;;;5.32;;
61962;SDS011;47927;42.646;23.096;2022-11-20T14:39:22;9.55;;;2.90;;
61962;SDS011;47927;42.646;23.096;2022-11-20T14:41:54;19.65;;;3.55;;
61962;SDS011;47927;42.646;23.096;2022-11-20T14:44:20;7.38;;;2.83;;
61962;SDS011;47927;42.646;23.096;2022-11-20T14:46:50;21.02;;;6.43;;
61962;SDS011;47927;42.646;23.096;2022-11-20T14:49:16;12.73;;;3.60;;
61962;SDS011;47927;42.646;23.096;2022-11-20T14:51:42;11.88;;;3.10;;
61962;SDS011;47927;42.646;23.096;2022-11-20T14:54:17;10.27;;;2.58;;
61962;SDS011;47927;42.646;23.096;2022-11-20T14:56:58;10.57;;;2.58;;
61962;SDS011;47927;42.646;23.096;2022-11-20T14:59:27;8.85;;;2.17;;
61962;SDS011;47927;42.646;23.096;2022-11-20T15:02:07;10.50;;;2.83;;
61962;SDS011;47927;42.646;23.096;2022-11-20T15:04:48;16.60;;;3.38;;
61962;SDS011;47927;42.646;23.096;2022-11-20T15:10:01;6.82;;;2.40;;
61962;SDS011;47927;42.646;23.096;2022-11-20T15:12:52;15.40;;;3.00;;
61962;SDS011;47927;42.646;23.096;2022-11-20T15:18:24;4.85;;;1.90;;
61962;SDS011;47927;42.646;23.096;2022-11-20T15:20:55;3.13;;;1.02;;
61962;SDS011;47927;42.646;23.096;2022-11-20T15:23:21;4.57;;;1.65;;
61962;SDS011;47927;42.646;23.096;2022-11-20T15:26:09;1.38;;;0.80;;
61962;SDS011;47927;42.646;23.096;2022-11-20T15:28:41;1.20;;;0.60;;
61962;SDS011;47927;42.646;23.096;2022-11-20T15:31:12;0.93;;;0.47;;
61962;SDS011;47927;42.646;23.096;2022-11-20T15:33:38;2.08;;;0.70;;
61962;SDS011;47927;42.646;23.096;2022-11-20T15:36:04;2.55;;;0.60;;
61962;SDS011;47927;42.646;23.096;2022-11-20T15:38:29;3.33;;;0.75;;
61962;SDS011;47927;42.646;23.096;2022-11-20T15:40:55;1.40;;;0.50;;
61962;SDS011;47927;42.646;23.096;2022-11-20T15:43:21;4.10;;;1.02;;
61962;SDS011;47927;42.646;23.096;2022-11-20T15:45:54;2.55;;;0.90;;
61962;SDS011;47927;42.646;23.096;2022-11-20T15:48:27;4.72;;;0.77;;
61962;SDS011;47927;42.646;23.096;2022-11-20T15:50:58;1.13;;;0.60;;
61962;SDS011;47927;42.646;23.096;2022-11-20T15:53:27;1.60;;;0.65;;
61962;SDS011;47927;42.646;23.096;2022-11-20T15:55:52;2.60;;;0.90;;
61962;SDS011;47927;42.646;23.096;2022-11-20T15:58:18;4.07;;;0.90;;
61962;SDS011;47927;42.646;23.096;2022-11-20T16:00:44;2.58;;;0.88;;
61962;SDS011;47927;42.646;23.096;2022-11-20T16:03:10;4.82;;;1.92;;
61962;SDS011;47927;42.646;23.096;2022-11-20T16:05:40;2.53;;;0.90;;
61962;SDS011;47927;42.646;23.096;2022-11-20T16:08:06;4.20;;;1.02;;
61962;SDS011;47927;42.646;23.096;2022-11-20T16:10:32;1.52;;;0.63;;
61962;SDS011;47927;42.646;23.096;2022-11-20T16:12:57;2.88;;;0.70;;
61962;SDS011;47927;42.646;23.096;2022-11-20T16:15:41;1.55;;;0.40;;
61962;SDS011;47927;42.646;23.096;2022-11-20T16:18:17;0.55;;;0.30;;
61962;SDS011;47927;42.646;23.096;2022-11-20T16:20:45;0.85;;;0.30;;
61962;SDS011;47927;42.646;23.096;2022-11-20T16:23:12;0.43;;;0.30;;
61962;SDS011;47927;42.646;23.096;2022-11-20T16:25:38;0.93;;;0.40;;
61962;SDS011;47927;42.646;23.096;2022-11-20T16:28:03;1.02;;;0.50;;
61962;SDS011;47927;42.646;23.096;2022-11-20T16:30:30;1.20;;;0.43;;
61962;SDS011;47927;42.646;23.096;2022-11-20T16:32:57;9.50;;;4.95;;
61962;SDS011;47927;42.646;23.096;2022-11-20T16:35:25;4.22;;;1.98;;
61962;SDS011;47927;42.646;23.096;2022-11-20T16:37:52;3.08;;;1.38;;
61962;SDS011;47927;42.646;23.096;2022-11-20T16:40:17;3.72;;;1.75;;
61962;SDS011;47927;42.646;23.096;2022-11-20T16:42:43;2.78;;;1.05;;